createdAt,value
2019-01-26T00:00:27.850Z,19.10
2019-01-26T00:03:07.125Z,18.67
2019-01-26T00:05:47.081Z,19.43
2019-01-26T00:08:26.167Z,20.03
2019-01-26T00:11:06.211Z,20.30
2019-01-26T00:13:45.259Z,20.20
2019-01-26T00:16:24.415Z,21.97
2019-01-26T00:19:03.426Z,23.60
2019-01-26T00:21:43.416Z,22.43
2019-01-26T00:24:23.456Z,23.43
2019-01-26T00:27:07.342Z,24.17
2019-01-26T00:29:46.564Z,24.73
2019-01-26T00:32:26.562Z,23.80
2019-01-26T00:35:06.500Z,23.97
2019-01-26T00:37:45.618Z,22.40
2019-01-26T00:40:25.504Z,22.80
2019-01-26T00:43:04.666Z,23.87
2019-01-26T00:45:44.703Z,25.07
2019-01-26T00:48:23.873Z,27.70
2019-01-26T00:51:03.896Z,26.50
2019-01-26T00:53:42.964Z,28.50
2019-01-26T00:56:22.135Z,27.20
2019-01-26T00:59:01.414Z,32.67
2019-01-26T01:01:40.680Z,31.27
2019-01-26T01:04:20.703Z,32.40
2019-01-26T01:07:00.661Z,32.03
2019-01-26T01:09:39.819Z,31.57
2019-01-26T01:12:19.857Z,34.07
2019-01-26T01:14:58.960Z,36.17
2019-01-26T01:17:38.171Z,34.20
2019-01-26T01:20:17.249Z,37.20
2019-01-26T01:22:56.397Z,37.47
2019-01-26T01:25:36.351Z,36.10
2019-01-26T01:28:16.377Z,40.13
2019-01-26T01:30:56.326Z,37.97
2019-01-26T01:33:36.408Z,37.00
2019-01-26T01:36:16.216Z,36.00
2019-01-26T01:38:55.348Z,40.60
2019-01-26T01:41:34.483Z,38.70
2019-01-26T01:44:13.661Z,35.03
2019-01-26T01:46:53.679Z,41.13
2019-01-26T01:49:33.720Z,40.97
2019-01-26T01:52:13.741Z,44.37
2019-01-26T01:54:52.885Z,40.87
2019-01-26T01:57:32.029Z,44.40
2019-01-26T02:00:11.162Z,40.50
2019-01-26T02:02:51.272Z,43.40
2019-01-26T02:05:31.204Z,43.17
2019-01-26T02:08:11.171Z,40.27
2019-01-26T02:10:51.291Z,41.00
2019-01-26T02:13:30.492Z,39.50
2019-01-26T02:16:09.742Z,39.87
2019-01-26T02:18:49.181Z,41.30
2019-01-26T02:21:29.145Z,42.33
2019-01-26T02:24:09.155Z,41.80
2019-01-26T02:29:30.963Z,37.33
2019-01-26T02:32:10.233Z,36.87
2019-01-26T02:34:49.324Z,37.53
2019-01-26T02:37:28.445Z,34.60
2019-01-26T02:40:07.551Z,36.43
2019-01-26T02:42:46.630Z,36.87
2019-01-26T02:45:26.591Z,36.03
2019-01-26T02:48:06.572Z,34.70
2019-01-26T02:50:45.844Z,37.00
2019-01-26T02:53:25.043Z,38.30
2019-01-26T02:56:05.059Z,40.87
2019-01-26T02:58:45.000Z,38.53
2019-01-26T03:01:25.072Z,40.63
2019-01-26T03:04:04.918Z,41.87
2019-01-26T03:06:44.067Z,40.07
2019-01-26T03:09:23.782Z,45.60
2019-01-26T03:12:03.003Z,49.13
2019-01-26T03:17:25.517Z,49.20
2019-01-26T03:20:05.369Z,47.97
2019-01-26T03:22:45.479Z,45.27
2019-01-26T03:25:25.412Z,49.07
2019-01-26T03:28:04.480Z,47.30
2019-01-26T03:30:43.565Z,48.27
2019-01-26T03:33:22.814Z,49.60
2019-01-26T03:36:02.844Z,47.40
2019-01-26T03:38:42.972Z,52.03
2019-01-26T03:41:23.156Z,52.50
2019-01-26T03:44:03.097Z,53.70
2019-01-26T03:46:43.029Z,52.40
2019-01-26T03:49:23.037Z,50.83
2019-01-26T03:52:02.972Z,50.70
2019-01-26T03:54:42.120Z,53.43
2019-01-26T03:57:21.395Z,53.10
2019-01-26T04:00:00.624Z,51.70
2019-01-26T04:02:39.858Z,52.40
2019-01-26T04:05:18.907Z,54.60
2019-01-26T04:07:58.105Z,55.77
2019-01-26T04:10:38.155Z,59.33
2019-01-26T04:13:18.101Z,54.60
2019-01-26T04:15:58.093Z,52.43
2019-01-26T04:18:38.152Z,52.57
2019-01-26T04:21:18.294Z,54.60
2019-01-26T04:23:58.315Z,56.87
2019-01-26T04:26:37.532Z,57.03
2019-01-26T04:29:16.738Z,58.70
2019-01-26T04:31:56.645Z,58.30
2019-01-26T04:34:35.783Z,60.77
2019-01-26T04:37:15.105Z,65.50
2019-01-26T04:39:54.276Z,61.77
2019-01-26T04:42:34.158Z,61.40
2019-01-26T04:45:14.146Z,60.70
2019-01-26T04:47:53.520Z,67.37
2019-01-26T04:50:33.544Z,66.93
2019-01-26T04:53:13.495Z,72.70
2019-01-26T04:55:53.485Z,72.93
2019-01-26T04:58:33.629Z,72.77
2019-01-26T05:01:13.537Z,75.30
2019-01-26T05:03:53.617Z,75.67
2019-01-26T05:06:33.600Z,77.47
2019-01-26T05:09:13.531Z,73.97
2019-01-26T05:11:52.615Z,74.13
2019-01-26T05:14:31.855Z,74.43
2019-01-26T05:17:10.945Z,74.37
2019-01-26T05:19:50.938Z,75.40
2019-01-26T05:22:30.728Z,66.90
2019-01-26T05:25:10.693Z,73.37
2019-01-26T05:27:50.460Z,69.00
2019-01-26T05:30:29.611Z,63.20
2019-01-26T05:33:08.811Z,76.00
2019-01-26T05:35:48.625Z,75.40
2019-01-26T05:38:28.663Z,74.27
2019-01-26T05:41:07.792Z,73.73
2019-01-26T05:43:47.847Z,71.53
2019-01-26T05:46:26.998Z,81.23
2019-01-26T05:49:06.847Z,74.90
2019-01-26T05:51:46.339Z,72.20
2019-01-26T05:54:26.353Z,78.13
2019-01-26T05:57:05.577Z,73.80
2019-01-26T05:59:45.624Z,70.73
2019-01-26T06:02:25.647Z,76.37
2019-01-26T06:05:04.988Z,72.90
2019-01-26T06:07:44.391Z,74.50
2019-01-26T06:10:24.384Z,73.37
2019-01-26T06:13:04.346Z,79.10
2019-01-26T06:15:44.290Z,70.83
2019-01-26T06:18:24.226Z,77.77
2019-01-26T06:21:04.323Z,73.77
2019-01-26T06:23:44.325Z,67.57
2019-01-26T06:26:24.214Z,74.30
2019-01-26T06:29:04.237Z,77.83
2019-01-26T06:31:47.643Z,71.97
2019-01-26T06:34:27.196Z,75.07
2019-01-26T06:37:06.665Z,69.30
2019-01-26T06:39:46.625Z,74.67
2019-01-26T06:42:25.816Z,75.20
2019-01-26T06:45:05.825Z,65.33
2019-01-26T06:47:45.803Z,66.27
2019-01-26T06:50:26.301Z,70.97
2019-01-26T06:53:05.787Z,70.87
2019-01-26T06:55:45.768Z,68.77
2019-01-26T07:02:05.082Z,67.43
2019-01-26T07:04:49.412Z,68.27
2019-01-26T07:07:28.713Z,72.07
2019-01-26T07:10:07.874Z,70.00
2019-01-26T07:12:47.873Z,71.23
2019-01-26T07:15:27.923Z,70.53
2019-01-26T07:18:09.611Z,66.20
2019-01-26T07:20:49.046Z,78.27
2019-01-26T07:23:29.003Z,74.37
2019-01-26T07:26:08.113Z,69.33
2019-01-26T07:28:48.164Z,74.30
2019-01-26T07:31:27.476Z,68.27
2019-01-26T07:34:07.584Z,71.93
2019-01-26T07:36:46.700Z,71.63
2019-01-26T07:39:26.724Z,69.13
2019-01-26T07:42:05.878Z,71.50
2019-01-26T07:44:45.930Z,72.80
2019-01-26T07:47:26.036Z,70.20
2019-01-26T07:50:06.071Z,71.03
2019-01-26T07:52:45.319Z,74.13
2019-01-26T07:55:25.183Z,68.07
2019-01-26T07:58:05.037Z,69.57
2019-01-26T08:00:45.013Z,68.80
2019-01-26T08:06:06.800Z,67.50
2019-01-26T08:08:46.733Z,68.03
2019-01-26T08:11:25.870Z,67.63
2019-01-26T08:14:05.963Z,65.57
2019-01-26T08:16:45.104Z,63.27
2019-01-26T08:19:25.105Z,67.33
2019-01-26T08:22:05.241Z,65.13
2019-01-26T08:24:45.228Z,67.13
2019-01-26T08:27:25.228Z,66.37
2019-01-26T08:30:05.256Z,59.93
2019-01-26T08:32:44.443Z,63.53
2019-01-26T08:35:24.391Z,63.90
2019-01-26T08:38:03.795Z,64.37
2019-01-26T08:40:42.876Z,56.73
2019-01-26T08:43:22.889Z,60.07
2019-01-26T08:46:02.001Z,59.60
2019-01-26T08:48:41.088Z,55.60
2019-01-26T08:51:20.959Z,52.93
2019-01-26T08:54:00.160Z,48.73
2019-01-26T08:56:40.221Z,51.73
2019-01-26T08:59:20.253Z,48.70
2019-01-26T09:02:02.185Z,50.60
2019-01-26T09:04:42.226Z,50.30
2019-01-26T09:07:22.196Z,46.50
2019-01-26T09:10:02.301Z,40.33
2019-01-26T09:12:42.352Z,47.33
2019-01-26T09:15:22.025Z,42.37
2019-01-26T09:18:01.600Z,41.17
2019-01-26T09:20:40.747Z,40.17
2019-01-26T09:23:19.929Z,41.00
2019-01-26T09:25:58.962Z,37.30
2019-01-26T09:28:38.215Z,38.30
2019-01-26T09:31:17.369Z,33.00
2019-01-26T09:33:57.163Z,32.60
2019-01-26T09:36:37.165Z,34.17
2019-01-26T09:39:17.113Z,31.53
2019-01-26T09:41:56.162Z,30.83
2019-01-26T09:44:35.250Z,32.90
2019-01-26T09:47:14.380Z,30.40
2019-01-26T09:49:54.147Z,28.70
2019-01-26T09:52:33.348Z,30.70
2019-01-26T09:55:12.529Z,29.47
2019-01-26T09:57:51.735Z,30.97
2019-01-26T10:00:30.766Z,28.03
2019-01-26T10:03:10.897Z,27.00
2019-01-26T10:05:50.953Z,32.40
2019-01-26T10:08:30.199Z,31.47
2019-01-26T10:11:10.167Z,30.20
2019-01-26T10:13:49.368Z,31.87
2019-01-26T10:16:29.304Z,32.67
2019-01-26T10:19:09.225Z,35.60
2019-01-26T10:21:48.300Z,33.37
2019-01-26T10:24:27.342Z,34.90
2019-01-26T10:27:07.359Z,36.03
2019-01-26T10:29:46.668Z,37.53
2019-01-26T10:32:25.802Z,37.13
2019-01-26T10:35:04.964Z,39.43
2019-01-26T10:37:44.100Z,39.63
2019-01-26T10:43:52.036Z,40.47
2019-01-26T10:46:31.457Z,39.80
2019-01-26T10:49:10.514Z,41.57
2019-01-26T10:51:49.575Z,42.47
2019-01-26T10:54:28.681Z,45.30
2019-01-26T10:57:08.782Z,44.10
2019-01-26T10:59:48.731Z,42.80
2019-01-26T11:02:28.780Z,44.03
2019-01-26T11:05:07.829Z,44.03
2019-01-26T11:07:47.823Z,43.47
2019-01-26T11:10:27.830Z,44.50
2019-01-26T11:13:08.007Z,44.67
2019-01-26T11:15:47.260Z,43.00
2019-01-26T11:18:27.358Z,45.37
2019-01-26T11:21:07.237Z,45.47
2019-01-26T11:23:47.246Z,45.50
2019-01-26T11:26:26.431Z,39.90
2019-01-26T11:29:05.546Z,46.73
2019-01-26T11:31:45.083Z,45.70
2019-01-26T11:34:24.676Z,42.53
2019-01-26T11:37:03.971Z,44.93
2019-01-26T11:39:45.091Z,43.80
2019-01-26T11:42:26.184Z,42.27
2019-01-26T11:45:25.943Z,42.37
2019-01-26T11:54:25.761Z,39.77
2019-01-26T11:57:06.393Z,43.37
2019-01-26T11:59:47.700Z,44.17
2019-01-26T12:02:30.019Z,42.60
2019-01-26T12:05:09.820Z,40.10
2019-01-26T12:07:49.328Z,38.57
2019-01-26T12:10:29.289Z,41.97
2019-01-26T12:13:09.197Z,43.17
2019-01-26T12:15:49.261Z,39.97
2019-01-26T12:18:29.384Z,39.50
2019-01-26T12:21:09.319Z,38.33
2019-01-26T12:23:48.494Z,37.87
2019-01-26T12:26:28.618Z,37.10
2019-01-26T12:35:57.397Z,35.50
2019-01-26T12:38:37.531Z,33.60
2019-01-26T12:41:17.569Z,33.70
2019-01-26T12:43:57.594Z,33.07
2019-01-26T12:46:37.545Z,31.03
2019-01-26T12:49:17.480Z,31.90
2019-01-26T12:51:57.439Z,31.87
2019-01-26T13:01:19.908Z,28.57
2019-01-26T13:07:39.441Z,30.53
2019-01-26T13:10:19.249Z,30.87
2019-01-26T13:12:59.180Z,28.57
2019-01-26T13:15:39.099Z,27.93
2019-01-26T13:18:18.203Z,28.10
2019-01-26T13:24:37.482Z,23.47
2019-01-26T13:27:17.489Z,24.50
2019-01-26T13:30:17.142Z,23.87
2019-01-26T13:32:56.580Z,22.70
2019-01-26T13:39:11.581Z,21.70
2019-01-26T13:41:50.761Z,21.13
2019-01-26T13:44:30.766Z,20.93
2019-01-26T13:49:52.704Z,18.20
2019-01-26T13:52:32.794Z,19.17
2019-01-26T13:55:12.824Z,17.03
2019-01-26T13:57:52.941Z,17.00
2019-01-26T14:00:32.931Z,17.07
2019-01-26T14:03:12.897Z,16.30
2019-01-26T14:05:52.816Z,14.90
2019-01-26T14:08:32.811Z,15.67
2019-01-26T14:11:12.101Z,15.10
2019-01-26T14:13:51.214Z,14.63
2019-01-26T14:16:31.323Z,14.60
2019-01-26T14:19:11.373Z,14.17
2019-01-26T14:21:51.339Z,14.83
2019-01-26T14:24:30.488Z,12.20
2019-01-26T14:27:09.579Z,12.20
2019-01-26T14:29:49.628Z,11.67
2019-01-26T14:32:28.754Z,12.30
2019-01-26T14:35:08.023Z,12.60
2019-01-26T14:37:47.886Z,12.03
2019-01-26T14:40:27.458Z,11.50
2019-01-26T14:43:07.000Z,12.60
2019-01-26T14:45:46.277Z,11.80
2019-01-26T14:48:26.289Z,13.10
2019-01-26T14:51:05.459Z,11.23
2019-01-26T14:53:47.809Z,11.33
2019-01-26T14:56:26.669Z,11.27
2019-01-26T14:59:05.946Z,10.73
2019-01-26T15:01:45.039Z,12.90
2019-01-26T15:04:24.925Z,10.23
2019-01-26T15:07:04.955Z,11.37
2019-01-26T15:09:44.999Z,12.07
2019-01-26T15:12:25.105Z,10.13
2019-01-26T15:15:05.205Z,9.53
2019-01-26T15:17:45.294Z,9.73
2019-01-26T15:20:25.181Z,10.57
2019-01-26T15:23:04.336Z,10.63
2019-01-26T15:25:44.456Z,11.50
2019-01-26T15:28:24.340Z,11.93
2019-01-26T15:31:03.575Z,10.47
2019-01-26T15:33:43.620Z,11.50
2019-01-26T15:36:23.537Z,12.43
2019-01-26T15:39:04.677Z,11.70
2019-01-26T15:41:44.500Z,12.90
2019-01-26T15:44:28.462Z,12.63
2019-01-26T15:47:08.400Z,12.33
2019-01-26T15:49:48.446Z,12.67
2019-01-26T15:55:53.018Z,12.80
2019-01-26T16:02:12.290Z,13.03
2019-01-26T16:04:52.312Z,14.27
2019-01-26T16:07:32.468Z,14.40
2019-01-26T16:13:48.726Z,12.70
2019-01-26T16:16:27.867Z,12.60
2019-01-26T16:19:07.751Z,11.20
2019-01-26T16:21:46.885Z,12.43
2019-01-26T16:24:26.060Z,11.07
2019-01-26T16:27:05.177Z,10.97
2019-01-26T16:29:44.245Z,11.10
2019-01-26T16:32:23.530Z,9.97
2019-01-26T16:35:03.453Z,12.07
2019-01-26T16:37:43.518Z,11.00
2019-01-26T16:40:23.693Z,11.27
2019-01-26T16:43:03.629Z,12.10
2019-01-26T16:45:43.680Z,11.50
2019-01-26T16:48:23.595Z,11.90
2019-01-26T16:51:02.811Z,11.50
2019-01-26T16:53:42.037Z,12.77
2019-01-26T16:56:22.105Z,14.50
2019-01-26T16:59:02.165Z,14.07
2019-01-26T17:01:42.212Z,15.50
2019-01-26T17:04:21.705Z,16.17
2019-01-26T17:07:01.658Z,15.90
2019-01-26T17:09:40.732Z,16.47
2019-01-26T17:12:20.680Z,16.50
2019-01-26T17:15:00.726Z,16.03
2019-01-26T17:17:40.562Z,15.10
2019-01-26T17:20:20.620Z,15.23
2019-01-26T17:23:00.760Z,15.07
2019-01-26T17:25:40.674Z,15.50
2019-01-26T17:28:20.739Z,13.50
2019-01-26T17:31:00.854Z,14.90
2019-01-26T17:33:40.040Z,15.77
2019-01-26T17:36:20.065Z,14.97
2019-01-26T17:39:00.128Z,16.00
2019-01-26T17:41:40.135Z,15.50
2019-01-26T17:44:19.358Z,14.93
2019-01-26T17:46:58.524Z,14.03
2019-01-26T17:49:37.596Z,14.03
2019-01-26T17:52:16.713Z,13.97
2019-01-26T17:54:55.947Z,14.90
2019-01-26T17:57:36.084Z,15.27
2019-01-26T18:00:16.867Z,14.87
2019-01-26T18:02:59.067Z,15.83
2019-01-26T18:08:20.669Z,14.97
2019-01-26T18:10:59.861Z,14.67
2019-01-26T18:13:39.078Z,14.87
2019-01-26T18:16:22.483Z,13.20
2019-01-26T18:19:01.960Z,13.77
2019-01-26T18:21:41.092Z,13.17
2019-01-26T18:24:20.957Z,12.70
2019-01-26T18:27:01.109Z,12.87
2019-01-26T18:29:40.997Z,10.60
2019-01-26T18:32:21.138Z,10.47
2019-01-26T18:35:00.255Z,10.50
2019-01-26T18:37:40.433Z,8.87
2019-01-26T18:40:19.705Z,10.03
2019-01-26T18:42:59.596Z,9.23
2019-01-26T18:45:39.568Z,8.73
2019-01-26T18:48:18.765Z,7.67
2019-01-26T18:50:58.809Z,7.80
2019-01-26T18:53:37.980Z,7.67
2019-01-26T18:56:17.993Z,7.50
2019-01-26T18:58:57.968Z,8.30
2019-01-26T19:01:38.148Z,6.67
2019-01-26T19:04:18.150Z,7.07
2019-01-26T19:06:58.175Z,7.07
2019-01-26T19:09:37.217Z,6.03
2019-01-26T19:12:16.570Z,6.33
2019-01-26T19:14:56.660Z,6.10
2019-01-26T19:17:35.876Z,6.60
2019-01-26T19:20:15.875Z,5.90
2019-01-26T19:22:55.895Z,6.43
2019-01-26T19:25:35.878Z,5.97
2019-01-26T19:28:15.257Z,7.43
2019-01-26T19:30:55.311Z,6.90
2019-01-26T19:33:35.331Z,6.53
2019-01-26T19:36:14.663Z,6.37
2019-01-26T19:38:54.449Z,7.03
2019-01-26T19:41:34.276Z,6.37
2019-01-26T19:44:14.427Z,5.97
2019-01-26T19:46:54.374Z,6.47
2019-01-26T19:49:34.331Z,6.90
2019-01-26T19:52:13.751Z,7.67
2019-01-26T19:54:53.750Z,6.70
2019-01-26T19:57:33.429Z,5.70
2019-01-26T20:00:13.433Z,6.77
2019-01-26T20:02:53.550Z,6.57
2019-01-26T20:05:33.700Z,7.40
2019-01-26T20:11:36.273Z,6.37
2019-01-26T20:14:35.387Z,5.73
2019-01-26T20:17:14.832Z,7.10
2019-01-26T20:19:54.787Z,6.30
2019-01-26T20:22:54.693Z,7.13
2019-01-26T20:25:34.290Z,6.43
2019-01-26T20:28:14.200Z,6.20
2019-01-26T20:30:54.346Z,6.80
2019-01-26T20:33:34.465Z,6.23
2019-01-26T20:36:14.619Z,7.17
2019-01-26T20:38:54.721Z,6.60
2019-01-26T20:41:34.706Z,6.37
2019-01-26T20:44:14.772Z,6.93
2019-01-26T20:46:54.861Z,6.30
2019-01-26T20:49:34.973Z,6.50
2019-01-26T20:52:15.069Z,7.10
2019-01-26T20:54:54.167Z,6.67
2019-01-26T20:57:34.281Z,6.47
2019-01-26T21:00:14.237Z,6.43
2019-01-26T21:02:54.307Z,5.73
2019-01-26T21:05:33.303Z,5.80
2019-01-26T21:08:12.515Z,5.60
2019-01-26T21:10:51.886Z,5.50
2019-01-26T21:13:31.888Z,5.83
2019-01-26T21:16:11.850Z,5.50
2019-01-26T21:18:51.000Z,4.93
2019-01-26T21:21:31.844Z,4.80
2019-01-26T21:24:11.416Z,4.23
2019-01-26T21:29:58.927Z,4.20
2019-01-26T21:35:45.398Z,3.97
2019-01-26T21:38:24.544Z,4.07
2019-01-26T21:41:03.781Z,3.30
2019-01-26T21:43:43.077Z,3.50
2019-01-26T21:46:23.041Z,3.20
2019-01-26T21:49:03.228Z,3.10
2019-01-26T21:51:43.368Z,2.57
2019-01-26T21:54:23.274Z,2.90
2019-01-26T21:57:03.311Z,2.70
2019-01-26T21:59:42.344Z,2.97
2019-01-26T22:02:21.589Z,3.07
2019-01-26T22:05:01.486Z,2.80
2019-01-26T22:07:41.276Z,2.50
2019-01-26T22:10:21.276Z,2.80
2019-01-26T22:13:00.394Z,3.37
2019-01-26T22:15:40.428Z,3.20
2019-01-26T22:18:19.560Z,2.57
2019-01-26T22:20:58.608Z,2.87
2019-01-26T22:23:37.729Z,2.83
2019-01-26T22:26:17.765Z,2.20
2019-01-26T22:28:57.745Z,2.43
2019-01-26T22:31:37.766Z,2.70
2019-01-26T22:34:16.869Z,2.47
2019-01-26T22:36:56.052Z,2.73
2019-01-26T22:39:35.262Z,2.43
2019-01-26T22:42:14.438Z,2.40
2019-01-26T22:44:53.573Z,2.13
2019-01-26T22:47:32.727Z,2.50
2019-01-26T22:50:11.896Z,2.10
2019-01-26T22:52:51.994Z,2.00
2019-01-26T22:55:31.108Z,2.57
2019-01-26T22:58:11.128Z,2.20
2019-01-26T23:00:51.936Z,2.07
2019-01-26T23:03:31.390Z,1.87
2019-01-26T23:06:11.631Z,2.10
2019-01-26T23:08:51.729Z,2.10
2019-01-26T23:11:31.709Z,2.10
2019-01-26T23:14:11.707Z,2.53
2019-01-26T23:16:51.602Z,2.07
2019-01-26T23:19:31.721Z,2.40
2019-01-26T23:22:10.841Z,1.93
2019-01-26T23:24:49.964Z,2.30
2019-01-26T23:30:42.352Z,2.10
2019-01-26T23:33:21.695Z,1.70
2019-01-26T23:36:01.756Z,2.57
2019-01-26T23:38:41.803Z,2.03
2019-01-26T23:41:20.997Z,2.63
2019-01-26T23:44:00.980Z,2.00
2019-01-26T23:46:40.928Z,1.80
2019-01-26T23:49:20.840Z,2.00
2019-01-26T23:52:00.691Z,2.10
2019-01-26T23:54:39.956Z,1.93
2019-01-26T23:57:19.118Z,1.73
2019-01-26T23:59:58.259Z,2.00
